createdAt,value
2016-11-20T00:00:05.389Z,4.3
2016-11-20T00:00:28.443Z,4.3
2016-11-20T00:00:49.323Z,4.4
2016-11-20T00:01:09.872Z,4.4
2016-11-20T00:01:30.457Z,4.3
2016-11-20T00:01:51.020Z,4.4
2016-11-20T00:02:11.560Z,4.4
2016-11-20T00:02:32.095Z,4.4
2016-11-20T00:02:52.646Z,4.4
2016-11-20T00:03:13.826Z,4.3
2016-11-20T00:03:35.259Z,4.3
2016-11-20T00:03:55.793Z,4.4
2016-11-20T00:04:16.363Z,4.5
2016-11-20T00:04:36.915Z,4.3
2016-11-20T00:04:57.462Z,4.3
2016-11-20T00:05:17.988Z,4.3
2016-11-20T00:05:38.586Z,4.4
2016-11-20T00:05:59.161Z,4.4
2016-11-20T00:06:19.708Z,4.3
2016-11-20T00:06:40.295Z,4.3
2016-11-20T00:07:00.832Z,4.4
2016-11-20T00:07:21.425Z,4.4
2016-11-20T00:07:41.967Z,4.3
2016-11-20T00:08:02.553Z,4.5
2016-11-20T00:08:23.090Z,4.4
2016-11-20T00:08:43.713Z,4.4
2016-11-20T00:09:04.261Z,4.4
2016-11-20T00:09:24.836Z,4.3
2016-11-20T00:09:45.403Z,4.4
2016-11-20T00:10:06.014Z,4.4
2016-11-20T00:10:26.568Z,4.3
2016-11-20T00:10:47.120Z,4.4
2016-11-20T00:11:07.665Z,4.4
2016-11-20T00:11:28.256Z,4.4
2016-11-20T00:11:48.829Z,4.3
2016-11-20T00:12:09.382Z,4.4
2016-11-20T00:12:29.958Z,4.3
2016-11-20T00:12:50.484Z,4.4
2016-11-20T00:13:11.045Z,4.4
2016-11-20T00:13:31.589Z,4.4
2016-11-20T00:13:52.147Z,4.3
2016-11-20T00:14:12.701Z,4.4
2016-11-20T00:14:33.253Z,4.4
2016-11-20T00:14:53.782Z,4.5
2016-11-20T00:15:14.314Z,4.4
2016-11-20T00:15:34.884Z,4.4
2016-11-20T00:15:55.431Z,4.4
2016-11-20T00:16:16.005Z,4.5
2016-11-20T00:16:36.550Z,4.5
2016-11-20T00:16:57.103Z,4.5
2016-11-20T00:17:17.668Z,4.4
2016-11-20T00:17:38.282Z,4.5
2016-11-20T00:17:58.819Z,4.5
2016-11-20T00:18:19.368Z,4.5
2016-11-20T00:18:39.913Z,4.4
2016-11-20T00:19:00.449Z,4.5
2016-11-20T00:19:21.068Z,4.5
2016-11-20T00:19:41.637Z,4.5
2016-11-20T00:20:02.194Z,4.5
2016-11-20T00:20:22.740Z,4.5
2016-11-20T00:20:43.353Z,4.5
2016-11-20T00:21:04.299Z,4.5
2016-11-20T00:21:24.862Z,4.5
2016-11-20T00:21:45.449Z,4.5
2016-11-20T00:22:05.998Z,4.5
2016-11-20T00:22:28.253Z,4.5
2016-11-20T00:22:48.842Z,4.5
2016-11-20T00:23:09.382Z,4.5
2016-11-20T00:23:29.912Z,4.5
2016-11-20T00:23:50.471Z,4.6
2016-11-20T00:24:10.995Z,4.6
2016-11-20T00:24:31.562Z,4.6
2016-11-20T00:24:52.105Z,4.5
2016-11-20T00:25:12.641Z,4.6
2016-11-20T00:25:33.190Z,4.6
2016-11-20T00:25:53.767Z,4.5
2016-11-20T00:26:14.318Z,4.6
2016-11-20T00:26:34.878Z,4.6
2016-11-20T00:26:55.454Z,4.5
2016-11-20T00:27:16.288Z,4.6
2016-11-20T00:27:36.844Z,4.6
2016-11-20T00:27:57.411Z,4.6
2016-11-20T00:28:17.950Z,4.6
2016-11-20T00:28:38.535Z,4.6
2016-11-20T00:28:59.071Z,4.5
2016-11-20T00:29:19.607Z,4.5
2016-11-20T00:29:40.168Z,4.6
2016-11-20T00:30:00.740Z,4.6
2016-11-20T00:30:21.297Z,4.5
2016-11-20T00:30:41.843Z,4.5
2016-11-20T00:31:02.410Z,4.5
2016-11-20T00:31:22.982Z,4.5
2016-11-20T00:31:43.596Z,4.5
2016-11-20T00:32:04.132Z,4.5
2016-11-20T00:32:24.669Z,4.6
2016-11-20T00:32:45.244Z,4.5
2016-11-20T00:33:05.779Z,4.5
2016-11-20T00:33:26.340Z,4.5
2016-11-20T00:33:46.894Z,4.5
2016-11-20T00:34:07.456Z,4.5
2016-11-20T00:34:27.985Z,4.5
2016-11-20T00:34:48.522Z,4.5
2016-11-20T00:35:09.081Z,4.5
2016-11-20T00:35:29.627Z,4.5
2016-11-20T00:35:50.176Z,4.5
2016-11-20T00:36:10.741Z,4.5
2016-11-20T00:36:31.301Z,4.4
2016-11-20T00:36:51.855Z,4.4
2016-11-20T00:37:12.433Z,4.5
2016-11-20T00:37:33.011Z,4.5
2016-11-20T00:37:53.546Z,4.5
2016-11-20T00:38:14.127Z,4.5
2016-11-20T00:38:34.674Z,4.4
2016-11-20T00:38:55.236Z,4.4
2016-11-20T00:39:15.812Z,4.4
2016-11-20T00:39:36.351Z,4.4
2016-11-20T00:39:56.900Z,4.4
2016-11-20T00:40:17.466Z,4.5
2016-11-20T00:40:38.027Z,4.4
2016-11-20T00:40:58.571Z,4.3
2016-11-20T00:41:19.113Z,4.4
2016-11-20T00:41:39.657Z,4.3
2016-11-20T00:42:00.220Z,4.3
2016-11-20T00:42:20.764Z,4.5
2016-11-20T00:42:41.298Z,4.4
2016-11-20T00:43:01.843Z,4.4
2016-11-20T00:43:22.415Z,4.4
2016-11-20T00:43:42.981Z,4.3
2016-11-20T00:44:03.519Z,4.4
2016-11-20T00:44:24.061Z,4.4
2016-11-20T00:44:44.641Z,4.3
2016-11-20T00:45:05.175Z,4.3
2016-11-20T00:45:25.713Z,4.4
2016-11-20T00:45:46.288Z,4.3
2016-11-20T00:46:06.855Z,4.3
2016-11-20T00:46:27.424Z,4.3
2016-11-20T00:46:48.016Z,4.3
2016-11-20T00:47:08.545Z,4.3
2016-11-20T00:47:29.079Z,4.3
2016-11-20T00:47:49.639Z,4.3
2016-11-20T00:48:10.234Z,4.2
2016-11-20T00:48:30.812Z,4.2
2016-11-20T00:48:51.406Z,4.2
2016-11-20T00:49:11.961Z,4.2
2016-11-20T00:49:32.535Z,4.2
2016-11-20T00:49:53.063Z,4.2
2016-11-20T00:50:13.689Z,4.1
2016-11-20T00:50:34.233Z,4.1
2016-11-20T00:50:54.781Z,4.2
2016-11-20T00:51:15.327Z,4.1
2016-11-20T00:51:35.875Z,4.2
2016-11-20T00:51:56.481Z,4.2
2016-11-20T00:52:17.051Z,4
2016-11-20T00:52:37.649Z,4.1
2016-11-20T00:52:58.228Z,4
2016-11-20T00:53:18.791Z,4.1
2016-11-20T00:53:39.320Z,4
2016-11-20T00:53:59.846Z,4
2016-11-20T00:54:20.432Z,4.1
2016-11-20T00:54:40.971Z,4
2016-11-20T00:55:01.549Z,3.9
2016-11-20T00:55:22.093Z,4
2016-11-20T00:55:42.614Z,3.9
2016-11-20T00:56:03.159Z,4
2016-11-20T00:56:23.718Z,3.9
2016-11-20T00:56:44.313Z,3.9
2016-11-20T00:57:04.863Z,3.8
2016-11-20T00:57:25.427Z,3.9
2016-11-20T00:57:46.005Z,3.8
2016-11-20T00:58:06.569Z,3.9
2016-11-20T00:58:27.119Z,3.9
2016-11-20T00:58:47.646Z,3.9
2016-11-20T00:59:08.182Z,3.7
2016-11-20T00:59:28.714Z,3.8
2016-11-20T00:59:49.263Z,3.8
2016-11-20T01:00:09.842Z,3.8
2016-11-20T01:00:30.461Z,3.8
2016-11-20T01:00:51.014Z,3.8
2016-11-20T01:01:11.593Z,3.9
2016-11-20T01:01:32.193Z,3.8
2016-11-20T01:01:52.747Z,3.8
2016-11-20T01:02:13.296Z,3.9
2016-11-20T01:02:33.854Z,3.8
2016-11-20T01:02:54.410Z,3.8
2016-11-20T01:03:14.945Z,3.8
2016-11-20T01:03:35.517Z,3.8
2016-11-20T01:03:56.093Z,3.8
2016-11-20T01:04:16.644Z,3.8
2016-11-20T01:04:37.186Z,3.8
2016-11-20T01:04:57.746Z,3.8
2016-11-20T01:05:18.294Z,3.7
2016-11-20T01:05:38.840Z,3.8
2016-11-20T01:05:59.383Z,3.8
2016-11-20T01:06:19.958Z,3.8
2016-11-20T01:06:40.520Z,3.8
2016-11-20T01:07:01.132Z,3.7
2016-11-20T01:07:21.706Z,3.7
2016-11-20T01:07:42.234Z,3.8
2016-11-20T01:08:02.780Z,3.8
2016-11-20T01:08:23.353Z,3.8
2016-11-20T01:08:43.935Z,3.9
2016-11-20T01:09:04.486Z,3.8
2016-11-20T01:09:25.100Z,3.8
2016-11-20T01:09:45.639Z,3.9
2016-11-20T01:10:06.185Z,3.7
2016-11-20T01:10:26.738Z,3.8
2016-11-20T01:10:47.350Z,3.8
2016-11-20T01:11:07.935Z,3.8
2016-11-20T01:11:28.497Z,3.8
2016-11-20T01:11:49.083Z,3.8
2016-11-20T01:12:09.616Z,3.8
2016-11-20T01:12:30.177Z,3.8
2016-11-20T01:12:50.778Z,3.8
2016-11-20T01:13:11.325Z,3.9
2016-11-20T01:13:31.883Z,3.8
2016-11-20T01:13:52.437Z,3.8
2016-11-20T01:14:13.055Z,3.9
2016-11-20T01:14:33.611Z,3.9
2016-11-20T01:14:54.226Z,3.9
2016-11-20T01:15:14.800Z,3.9
2016-11-20T01:15:35.343Z,4
2016-11-20T01:15:55.931Z,4
2016-11-20T01:16:16.513Z,4
2016-11-20T01:16:37.052Z,4
2016-11-20T01:16:57.580Z,4.1
2016-11-20T01:17:18.136Z,4
2016-11-20T01:17:38.667Z,4
2016-11-20T01:17:59.240Z,4.1
2016-11-20T01:18:19.802Z,4.1
2016-11-20T01:18:40.342Z,4.1
2016-11-20T01:19:00.908Z,4.2
2016-11-20T01:19:21.475Z,4.2
2016-11-20T01:19:42.035Z,4.2
2016-11-20T01:20:02.581Z,4.2
2016-11-20T01:20:23.167Z,4.2
2016-11-20T01:20:43.715Z,4.2
2016-11-20T01:21:04.256Z,4.2
2016-11-20T01:21:24.793Z,4.2
2016-11-20T01:21:45.349Z,4.2
2016-11-20T01:22:05.895Z,4.2
2016-11-20T01:22:26.494Z,4.2
2016-11-20T01:22:47.060Z,4.1
2016-11-20T01:23:07.661Z,4.3
2016-11-20T01:23:28.252Z,4.3
2016-11-20T01:23:48.807Z,4.2
2016-11-20T01:24:09.426Z,4.3
2016-11-20T01:24:29.982Z,4.3
2016-11-20T01:24:50.545Z,4.2
2016-11-20T01:25:11.077Z,4.2
2016-11-20T01:25:31.638Z,4.2
2016-11-20T01:25:52.189Z,4.3
2016-11-20T01:26:12.759Z,4.3
2016-11-20T01:26:33.327Z,4.2
2016-11-20T01:26:53.877Z,4.3
2016-11-20T01:27:14.454Z,4.3
2016-11-20T01:27:34.998Z,4.3
2016-11-20T01:27:55.574Z,4.3
2016-11-20T01:28:16.096Z,4.3
2016-11-20T01:28:36.705Z,4.2
2016-11-20T01:28:57.289Z,4.4
2016-11-20T01:29:17.871Z,4.3
2016-11-20T01:29:38.495Z,4.4
2016-11-20T01:29:59.058Z,4.3
2016-11-20T01:30:19.607Z,4.3
2016-11-20T01:30:40.202Z,4.3
2016-11-20T01:31:00.738Z,4.4
2016-11-20T01:31:21.294Z,4.4
2016-11-20T01:31:41.842Z,4.4
2016-11-20T01:32:02.443Z,4.4
2016-11-20T01:32:22.981Z,4.3
2016-11-20T01:32:43.535Z,4.3
2016-11-20T01:33:04.093Z,4.3
2016-11-20T01:33:24.680Z,4.3
2016-11-20T01:33:45.242Z,4.4
2016-11-20T01:34:05.869Z,4.4
2016-11-20T01:34:26.421Z,4.3
2016-11-20T01:34:46.986Z,4.2
2016-11-20T01:35:07.540Z,4.2
2016-11-20T01:35:28.148Z,4.2
2016-11-20T01:35:48.676Z,4.2
2016-11-20T01:36:09.272Z,4.2
2016-11-20T01:36:29.817Z,4.2
2016-11-20T01:36:50.342Z,4.2
2016-11-20T01:37:10.895Z,4.2
2016-11-20T01:37:31.443Z,4.1
2016-11-20T01:37:51.982Z,4.1
2016-11-20T01:38:12.532Z,4.1
2016-11-20T01:38:33.076Z,4
2016-11-20T01:38:53.644Z,4
2016-11-20T01:39:14.204Z,4.1
2016-11-20T01:39:34.756Z,4
2016-11-20T01:39:55.297Z,4
2016-11-20T01:40:15.876Z,3.9
2016-11-20T01:40:36.427Z,3.9
2016-11-20T01:40:57.012Z,3.9
2016-11-20T01:41:17.615Z,3.9
2016-11-20T01:41:38.157Z,3.8
2016-11-20T01:41:58.752Z,3.8
2016-11-20T01:42:19.338Z,3.9
2016-11-20T01:42:39.886Z,3.8
2016-11-20T01:43:00.444Z,3.8
2016-11-20T01:43:20.981Z,3.8
2016-11-20T01:43:41.598Z,3.7
2016-11-20T01:44:02.168Z,3.7
2016-11-20T01:44:22.726Z,3.8
2016-11-20T01:44:43.266Z,3.7
2016-11-20T01:45:03.834Z,3.6
2016-11-20T01:45:24.403Z,3.7
2016-11-20T01:45:44.958Z,3.7
2016-11-20T01:46:05.563Z,3.7
2016-11-20T01:46:26.114Z,3.7
2016-11-20T01:46:46.691Z,3.6
2016-11-20T01:47:07.228Z,3.6
2016-11-20T01:47:27.810Z,3.7
2016-11-20T01:47:48.367Z,3.6
2016-11-20T01:48:08.916Z,3.6
2016-11-20T01:48:29.524Z,3.6
2016-11-20T01:48:50.076Z,3.5
2016-11-20T01:49:10.701Z,3.5
2016-11-20T01:49:32.672Z,3.4
2016-11-20T01:49:53.236Z,3.4
2016-11-20T01:50:13.790Z,3.4
2016-11-20T01:50:34.327Z,3.4
2016-11-20T01:50:54.900Z,3.4
2016-11-20T01:51:15.477Z,3.4
2016-11-20T01:51:36.043Z,3.3
2016-11-20T01:51:56.602Z,3.3
2016-11-20T01:52:17.139Z,3.4
2016-11-20T01:52:37.707Z,3.3
2016-11-20T01:52:58.271Z,3.4
2016-11-20T01:53:18.833Z,3.3
2016-11-20T01:53:39.391Z,3.3
2016-11-20T01:53:59.995Z,3.3
2016-11-20T01:54:20.564Z,3.3
2016-11-20T01:54:41.133Z,3.2
2016-11-20T01:55:01.687Z,3.2
2016-11-20T01:55:22.765Z,3.2
2016-11-20T01:55:43.345Z,3.2
2016-11-20T01:56:03.878Z,3.2
2016-11-20T01:56:24.433Z,3.2
2016-11-20T01:56:44.985Z,3.2
2016-11-20T01:57:05.563Z,3.2
2016-11-20T01:57:26.109Z,3.2
2016-11-20T01:57:46.667Z,3.2
2016-11-20T01:58:07.237Z,3.3
2016-11-20T01:58:27.827Z,3.2
2016-11-20T01:58:48.395Z,3.3
2016-11-20T01:59:08.978Z,3.2
2016-11-20T01:59:29.561Z,3.2
2016-11-20T01:59:50.114Z,3.1
2016-11-20T02:00:10.660Z,3.2
2016-11-20T02:00:31.197Z,3.3
2016-11-20T02:00:51.758Z,3.2
2016-11-20T02:01:12.315Z,3.2
2016-11-20T02:01:32.886Z,3.2
2016-11-20T02:01:53.467Z,3.2
2016-11-20T02:02:14.039Z,3.1
2016-11-20T02:02:34.584Z,3.3
2016-11-20T02:02:55.155Z,3.2
2016-11-20T02:03:15.764Z,3.3
2016-11-20T02:03:36.310Z,3.3
2016-11-20T02:03:56.868Z,3.3
2016-11-20T02:04:17.412Z,3.2
2016-11-20T02:04:37.953Z,3.2
2016-11-20T02:04:58.485Z,3.2
2016-11-20T02:05:19.040Z,3.2
2016-11-20T02:05:39.630Z,3.2
2016-11-20T02:06:00.238Z,3.2
2016-11-20T02:06:20.811Z,3.2
2016-11-20T02:06:41.404Z,3.2
2016-11-20T02:07:01.995Z,3.2
2016-11-20T02:07:22.544Z,3.3
2016-11-20T02:07:43.100Z,3.2
2016-11-20T02:08:03.683Z,3.2
2016-11-20T02:08:24.236Z,3.2
2016-11-20T02:08:44.813Z,3.2
2016-11-20T02:09:05.366Z,3.2
2016-11-20T02:09:25.913Z,3.2
2016-11-20T02:09:46.448Z,3.2
2016-11-20T02:10:06.997Z,3.2
2016-11-20T02:10:27.558Z,3.1
2016-11-20T02:10:48.140Z,3.1
2016-11-20T02:11:08.717Z,3.1
2016-11-20T02:11:29.267Z,3.1
2016-11-20T02:11:49.835Z,3.2
2016-11-20T02:12:10.390Z,3.2
2016-11-20T02:12:30.969Z,3.1
2016-11-20T02:12:51.506Z,3.2
2016-11-20T02:13:12.063Z,3.2
2016-11-20T02:13:32.661Z,3.2
2016-11-20T02:13:53.203Z,3.2
2016-11-20T02:14:13.791Z,3.3
2016-11-20T02:14:34.343Z,3.2
2016-11-20T02:14:54.947Z,3.2
2016-11-20T02:15:15.494Z,3.3
2016-11-20T02:15:36.073Z,3.2
2016-11-20T02:15:56.638Z,3.1
2016-11-20T02:16:17.204Z,3.2
2016-11-20T02:16:37.773Z,3.2
2016-11-20T02:16:58.321Z,3.1
2016-11-20T02:17:18.857Z,3.1
2016-11-20T02:17:39.464Z,3.2
2016-11-20T02:18:00.005Z,3.2
2016-11-20T02:18:20.559Z,3.2
2016-11-20T02:18:41.114Z,3.1
2016-11-20T02:19:01.674Z,3.2
2016-11-20T02:19:22.225Z,3.2
2016-11-20T02:19:42.780Z,3.1
2016-11-20T02:20:03.319Z,3.1
2016-11-20T02:20:23.878Z,3.1
2016-11-20T02:20:44.437Z,3.1
2016-11-20T02:21:04.993Z,3
2016-11-20T02:21:25.531Z,3
2016-11-20T02:21:46.165Z,3.1
2016-11-20T02:22:06.738Z,3
2016-11-20T02:22:27.276Z,3
2016-11-20T02:22:47.853Z,3.1
2016-11-20T02:23:08.383Z,3.1
2016-11-20T02:23:28.930Z,3.1
2016-11-20T02:23:49.528Z,3.1
2016-11-20T02:24:10.076Z,3.1
2016-11-20T02:24:30.688Z,3
2016-11-20T02:24:51.251Z,3
2016-11-20T02:25:11.786Z,3.1
2016-11-20T02:25:32.341Z,3
2016-11-20T02:25:52.886Z,3
2016-11-20T02:26:13.456Z,3.1
2016-11-20T02:26:34.031Z,3.1
2016-11-20T02:26:54.585Z,3
2016-11-20T02:27:15.116Z,3
2016-11-20T02:27:35.647Z,3.1
2016-11-20T02:27:56.198Z,3.1
2016-11-20T02:28:16.758Z,3
2016-11-20T02:28:37.318Z,3.1
2016-11-20T02:28:57.908Z,3
2016-11-20T02:29:18.482Z,3
2016-11-20T02:29:39.072Z,3
2016-11-20T02:29:59.603Z,3
2016-11-20T02:30:20.183Z,3
2016-11-20T02:30:40.730Z,3
2016-11-20T02:31:01.294Z,3.1
2016-11-20T02:31:21.867Z,3
2016-11-20T02:31:42.462Z,3.1
2016-11-20T02:32:03.039Z,3
2016-11-20T02:32:23.609Z,3
2016-11-20T02:32:44.172Z,3.1
2016-11-20T02:33:04.773Z,3
2016-11-20T02:33:25.347Z,3
2016-11-20T02:33:45.889Z,3
2016-11-20T02:34:06.427Z,3.1
2016-11-20T02:34:26.970Z,3
2016-11-20T02:34:47.533Z,3.1
2016-11-20T02:35:08.087Z,3.1
2016-11-20T02:35:28.678Z,3.1
2016-11-20T02:35:49.250Z,3.1
2016-11-20T02:36:09.820Z,3.1
2016-11-20T02:36:30.358Z,3.1
2016-11-20T02:36:50.880Z,3.1
2016-11-20T02:37:11.422Z,3.2
2016-11-20T02:37:31.967Z,3.1
2016-11-20T02:37:52.526Z,3.1
2016-11-20T02:38:13.089Z,3.2
2016-11-20T02:38:33.643Z,3.2
2016-11-20T02:38:54.231Z,3.1
2016-11-20T02:39:14.784Z,3.1
2016-11-20T02:39:35.416Z,3.2
2016-11-20T02:39:55.978Z,3.2
2016-11-20T02:40:16.618Z,3.2
2016-11-20T02:40:37.160Z,3.2
2016-11-20T02:40:57.741Z,3.2
2016-11-20T02:41:18.313Z,3.1
2016-11-20T02:41:38.857Z,3.2
2016-11-20T02:41:59.409Z,3.2
2016-11-20T02:42:19.953Z,3.2
2016-11-20T02:42:40.505Z,3.2
2016-11-20T02:43:01.041Z,3.2
2016-11-20T02:43:21.596Z,3.2
2016-11-20T02:43:42.199Z,3.2
2016-11-20T02:44:02.774Z,3.1
2016-11-20T02:44:23.320Z,3.2
2016-11-20T02:44:43.869Z,3.2
2016-11-20T02:45:04.420Z,3.2
2016-11-20T02:45:24.999Z,3.2
2016-11-20T02:45:45.599Z,3.2
2016-11-20T02:46:06.151Z,3.3
2016-11-20T02:46:26.717Z,3.4
2016-11-20T02:46:47.290Z,3.3
2016-11-20T02:47:07.912Z,3.2
2016-11-20T02:47:28.536Z,3.3
2016-11-20T02:47:49.090Z,3.3
2016-11-20T02:48:09.702Z,3.3
2016-11-20T02:48:30.262Z,3.3
2016-11-20T02:48:50.804Z,3.3
2016-11-20T02:49:11.350Z,3.3
2016-11-20T02:49:31.977Z,3.4
2016-11-20T02:49:52.538Z,3.3
2016-11-20T02:50:13.148Z,3.3
2016-11-20T02:50:33.701Z,3.3
2016-11-20T02:50:54.242Z,3.4
2016-11-20T02:51:14.809Z,3.4
2016-11-20T02:51:35.363Z,3.4
2016-11-20T02:51:55.896Z,3.4
2016-11-20T02:52:16.455Z,3.4
2016-11-20T02:52:37.025Z,3.3
2016-11-20T02:52:57.613Z,3.4
2016-11-20T02:53:18.187Z,3.4
2016-11-20T02:53:38.754Z,3.3
2016-11-20T02:53:59.301Z,3.4
2016-11-20T02:54:19.843Z,3.4
2016-11-20T02:54:40.446Z,3.5
2016-11-20T02:55:01.010Z,3.4
2016-11-20T02:55:21.556Z,3.5
2016-11-20T02:55:42.132Z,3.4
2016-11-20T02:56:02.674Z,3.5
2016-11-20T02:56:23.206Z,3.4
2016-11-20T02:56:43.745Z,3.4
2016-11-20T02:57:04.282Z,3.4
2016-11-20T02:57:24.817Z,3.5
2016-11-20T02:57:45.360Z,3.4
2016-11-20T02:58:05.898Z,3.4
2016-11-20T02:58:26.436Z,3.5
2016-11-20T02:58:46.962Z,3.4
2016-11-20T02:59:07.568Z,3.4
2016-11-20T02:59:28.126Z,3.5
2016-11-20T02:59:48.721Z,3.5
2016-11-20T03:00:09.263Z,3.4
2016-11-20T03:00:29.817Z,3.6
2016-11-20T03:00:50.363Z,3.4
2016-11-20T03:01:10.933Z,3.5
2016-11-20T03:01:31.501Z,3.5
2016-11-20T03:01:52.115Z,3.5
2016-11-20T03:02:12.695Z,3.5
2016-11-20T03:02:33.250Z,3.4
2016-11-20T03:02:53.828Z,3.4
2016-11-20T03:03:14.401Z,3.5
2016-11-20T03:03:34.983Z,3.5
2016-11-20T03:03:55.580Z,3.4
2016-11-20T03:04:16.146Z,3.5
2016-11-20T03:04:36.719Z,3.5
2016-11-20T03:04:57.294Z,3.5
2016-11-20T03:05:17.879Z,3.5
2016-11-20T03:05:38.435Z,3.5
2016-11-20T03:05:58.956Z,3.5
2016-11-20T03:06:19.500Z,3.5
2016-11-20T03:06:40.050Z,3.5
2016-11-20T03:07:00.631Z,3.6
2016-11-20T03:07:21.210Z,3.5
2016-11-20T03:07:41.780Z,3.5
2016-11-20T03:08:02.324Z,3.5
2016-11-20T03:08:22.864Z,3.5
2016-11-20T03:08:43.443Z,3.5
2016-11-20T03:09:03.994Z,3.5
2016-11-20T03:09:24.587Z,3.5
2016-11-20T03:09:45.169Z,3.6
2016-11-20T03:10:05.746Z,3.5
2016-11-20T03:10:26.290Z,3.5
2016-11-20T03:10:46.877Z,3.5
2016-11-20T03:11:07.459Z,3.6
2016-11-20T03:11:28.067Z,3.6
2016-11-20T03:11:48.612Z,3.6
2016-11-20T03:12:09.194Z,3.6
2016-11-20T03:12:29.790Z,3.5
2016-11-20T03:12:50.382Z,3.6
2016-11-20T03:13:10.923Z,3.5
2016-11-20T03:13:31.506Z,3.5
2016-11-20T03:13:52.055Z,3.5
2016-11-20T03:14:12.656Z,3.6
2016-11-20T03:14:33.212Z,3.5
2016-11-20T03:14:53.762Z,3.5
2016-11-20T03:15:14.413Z,3.5
2016-11-20T03:15:34.971Z,3.5
2016-11-20T03:15:55.512Z,3.5
2016-11-20T03:16:16.072Z,3.5
2016-11-20T03:16:36.643Z,3.5
2016-11-20T03:16:57.220Z,3.5
2016-11-20T03:17:17.778Z,3.5
2016-11-20T03:17:38.325Z,3.5
2016-11-20T03:17:58.895Z,3.5
2016-11-20T03:18:19.438Z,3.5
2016-11-20T03:18:39.969Z,3.5
2016-11-20T03:19:00.543Z,3.4
2016-11-20T03:19:21.111Z,3.5
2016-11-20T03:19:41.684Z,3.4
2016-11-20T03:20:02.273Z,3.4
2016-11-20T03:20:22.832Z,3.4
2016-11-20T03:20:43.364Z,3.5
2016-11-20T03:21:03.906Z,3.5
2016-11-20T03:21:24.464Z,3.4
2016-11-20T03:21:45.004Z,3.4
2016-11-20T03:22:05.633Z,3.5
2016-11-20T03:22:26.240Z,3.4
2016-11-20T03:22:46.825Z,3.5
2016-11-20T03:23:07.406Z,3.4
2016-11-20T03:23:27.947Z,3.3
2016-11-20T03:23:48.539Z,3.4
2016-11-20T03:24:09.127Z,3.4
2016-11-20T03:24:29.685Z,3.3
2016-11-20T03:24:50.214Z,3.4
2016-11-20T03:25:10.760Z,3.4
2016-11-20T03:25:31.337Z,3.5
2016-11-20T03:25:51.929Z,3.4
2016-11-20T03:26:12.469Z,3.4
2016-11-20T03:26:33.017Z,3.3
2016-11-20T03:26:53.582Z,3.3
2016-11-20T03:27:14.132Z,3.4
2016-11-20T03:27:34.719Z,3.3
2016-11-20T03:27:55.253Z,3.3
2016-11-20T03:28:15.831Z,3.3
2016-11-20T03:28:36.363Z,3.3
2016-11-20T03:28:56.921Z,3.4
2016-11-20T03:29:17.524Z,3.4
2016-11-20T03:29:38.126Z,3.3
2016-11-20T03:29:58.671Z,3.4
2016-11-20T03:30:19.215Z,3.3
2016-11-20T03:30:39.764Z,3.3
2016-11-20T03:31:00.367Z,3.3
2016-11-20T03:31:20.931Z,3.3
2016-11-20T03:31:41.521Z,3.4
2016-11-20T03:32:02.076Z,3.3
2016-11-20T03:32:22.609Z,3.3
2016-11-20T03:32:43.168Z,3.2
2016-11-20T03:33:03.801Z,3.3
2016-11-20T03:33:24.400Z,3.3
2016-11-20T03:33:44.971Z,3.2
2016-11-20T03:34:05.539Z,3.4
2016-11-20T03:34:26.091Z,3.4
2016-11-20T03:34:46.619Z,3.2
2016-11-20T03:35:07.161Z,3.4
2016-11-20T03:35:27.713Z,3.4
2016-11-20T03:35:48.258Z,3.3
2016-11-20T03:36:08.839Z,3.4
2016-11-20T03:36:29.422Z,3.4
2016-11-20T03:36:49.995Z,3.2
2016-11-20T03:37:10.539Z,3.3
2016-11-20T03:37:31.113Z,3.4
2016-11-20T03:37:51.667Z,3.2
2016-11-20T03:38:12.249Z,3.4
2016-11-20T03:38:32.817Z,3.3
2016-11-20T03:38:53.361Z,3.3
2016-11-20T03:39:13.897Z,3.3
2016-11-20T03:39:34.463Z,3.3
2016-11-20T03:39:54.991Z,3.3
2016-11-20T03:40:15.560Z,3.3
2016-11-20T03:40:36.101Z,3.4
2016-11-20T03:40:56.654Z,3.3
2016-11-20T03:41:17.280Z,3.3
2016-11-20T03:41:37.854Z,3.4
2016-11-20T03:41:58.453Z,3.3
2016-11-20T03:42:19.029Z,3.4
2016-11-20T03:42:39.579Z,3.3
2016-11-20T03:43:00.134Z,3.4
2016-11-20T03:43:20.696Z,3.3
2016-11-20T03:43:41.235Z,3.3
2016-11-20T03:44:01.776Z,3.4
2016-11-20T03:44:22.344Z,3.4
2016-11-20T03:44:42.880Z,3.3
2016-11-20T03:45:03.454Z,3.3
2016-11-20T03:45:23.996Z,3.3
2016-11-20T03:45:44.531Z,3.3
2016-11-20T03:46:05.084Z,3.4
2016-11-20T03:46:25.618Z,3.4
2016-11-20T03:46:46.212Z,3.3
2016-11-20T03:47:06.755Z,3.4
2016-11-20T03:47:27.353Z,3.4
2016-11-20T03:47:47.907Z,3.3
2016-11-20T03:48:08.482Z,3.3
2016-11-20T03:48:29.050Z,3.4
2016-11-20T03:48:49.618Z,3.4
2016-11-20T03:49:10.180Z,3.4
2016-11-20T03:49:30.725Z,3.3
2016-11-20T03:49:51.288Z,3.3
2016-11-20T03:50:11.824Z,3.4
2016-11-20T03:50:32.364Z,3.3
2016-11-20T03:50:53.004Z,3.4
2016-11-20T03:51:13.568Z,3.3
2016-11-20T03:51:34.157Z,3.4
2016-11-20T03:51:54.741Z,3.4
2016-11-20T03:52:15.318Z,3.4
2016-11-20T03:52:35.856Z,3.4
2016-11-20T03:52:56.428Z,3.4
2016-11-20T03:53:16.978Z,3.3
2016-11-20T03:53:37.530Z,3.4
2016-11-20T03:53:58.083Z,3.3
2016-11-20T03:54:18.651Z,3.4
2016-11-20T03:54:39.199Z,3.3
2016-11-20T03:54:59.795Z,3.4
2016-11-20T03:55:20.346Z,3.3
2016-11-20T03:55:40.937Z,3.4
2016-11-20T03:56:01.527Z,3.3
2016-11-20T03:56:22.104Z,3.4
2016-11-20T03:56:42.646Z,3.4
2016-11-20T03:57:03.210Z,3.4
2016-11-20T03:57:23.791Z,3.4
2016-11-20T03:57:44.349Z,3.4
2016-11-20T03:58:04.951Z,3.4
2016-11-20T03:58:25.546Z,3.4
2016-11-20T03:58:46.143Z,3.4
2016-11-20T03:59:06.699Z,3.4
2016-11-20T03:59:27.239Z,3.4
2016-11-20T03:59:47.823Z,3.4
2016-11-20T04:00:08.385Z,3.4
2016-11-20T04:00:28.957Z,3.4
2016-11-20T04:00:49.501Z,3.4
2016-11-20T04:01:10.050Z,3.3
2016-11-20T04:01:30.607Z,3.4
2016-11-20T04:01:51.169Z,3.4
2016-11-20T04:02:11.700Z,3.4
2016-11-20T04:02:32.253Z,3.4
2016-11-20T04:02:52.791Z,3.4
2016-11-20T04:03:13.361Z,3.5
2016-11-20T04:03:33.902Z,3.4
2016-11-20T04:03:54.472Z,3.4
2016-11-20T04:04:15.047Z,3.5
2016-11-20T04:04:35.612Z,3.4
2016-11-20T04:04:56.198Z,3.5
2016-11-20T04:05:16.724Z,3.4
2016-11-20T04:05:37.309Z,3.4
2016-11-20T04:05:57.908Z,3.4
2016-11-20T04:06:18.440Z,3.5
2016-11-20T04:06:39.050Z,3.5
2016-11-20T04:06:59.605Z,3.5
2016-11-20T04:07:20.166Z,3.5
2016-11-20T04:07:40.776Z,3.4
2016-11-20T04:08:01.360Z,3.5
2016-11-20T04:08:21.948Z,3.5
2016-11-20T04:08:42.556Z,3.4
2016-11-20T04:09:03.118Z,3.5
2016-11-20T04:09:23.695Z,3.5
2016-11-20T04:09:44.251Z,3.5
2016-11-20T04:10:04.815Z,3.5
2016-11-20T04:10:25.353Z,3.5
2016-11-20T04:10:45.895Z,3.5
2016-11-20T04:11:06.423Z,3.4
2016-11-20T04:11:26.974Z,3.5
2016-11-20T04:11:47.566Z,3.5
2016-11-20T04:12:08.181Z,3.5
2016-11-20T04:12:28.766Z,3.5
2016-11-20T04:12:49.325Z,3.5
2016-11-20T04:13:09.881Z,3.5
2016-11-20T04:13:30.445Z,3.5
2016-11-20T04:13:50.990Z,3.5
2016-11-20T04:14:11.544Z,3.5
2016-11-20T04:14:32.124Z,3.5
2016-11-20T04:14:52.685Z,3.5
2016-11-20T04:15:13.215Z,3.6
2016-11-20T04:15:33.756Z,3.5
2016-11-20T04:15:54.303Z,3.6
2016-11-20T04:16:14.860Z,3.6
2016-11-20T04:16:35.424Z,3.6
2016-11-20T04:16:55.967Z,3.6
2016-11-20T04:17:16.536Z,3.6
2016-11-20T04:17:37.077Z,3.6
2016-11-20T04:17:57.631Z,3.7
2016-11-20T04:18:18.229Z,3.6
2016-11-20T04:18:38.779Z,3.5
2016-11-20T04:18:59.307Z,3.6
2016-11-20T04:19:19.899Z,3.6
2016-11-20T04:19:40.455Z,3.6
2016-11-20T04:20:00.997Z,3.7
2016-11-20T04:20:21.532Z,3.5
2016-11-20T04:20:42.075Z,3.6
2016-11-20T04:21:02.682Z,3.6
2016-11-20T04:21:23.225Z,3.6
2016-11-20T04:21:43.826Z,3.6
2016-11-20T04:22:04.420Z,3.6
2016-11-20T04:22:24.980Z,3.6
2016-11-20T04:22:45.545Z,3.6
2016-11-20T04:23:06.125Z,3.5
2016-11-20T04:23:26.672Z,3.6
2016-11-20T04:23:47.267Z,3.6
2016-11-20T04:24:07.843Z,3.6
2016-11-20T04:24:28.421Z,3.6
2016-11-20T04:24:48.985Z,3.6
2016-11-20T04:25:09.541Z,3.6
2016-11-20T04:25:30.087Z,3.6
2016-11-20T04:25:50.693Z,3.6
2016-11-20T04:26:11.233Z,3.6
2016-11-20T04:26:31.819Z,3.6
2016-11-20T04:26:52.400Z,3.6
2016-11-20T04:27:12.961Z,3.6
2016-11-20T04:27:33.492Z,3.6
2016-11-20T04:27:54.039Z,3.6
2016-11-20T04:28:14.622Z,3.7
2016-11-20T04:28:35.189Z,3.6
2016-11-20T04:28:55.748Z,3.6
2016-11-20T04:29:16.306Z,3.6
2016-11-20T04:29:36.841Z,3.5
2016-11-20T04:29:57.414Z,3.6
2016-11-20T04:30:17.968Z,3.6
2016-11-20T04:30:38.515Z,3.6
2016-11-20T04:30:59.121Z,3.6
2016-11-20T04:31:19.705Z,3.5
2016-11-20T04:31:40.244Z,3.6
2016-11-20T04:32:00.839Z,3.7
2016-11-20T04:32:21.394Z,3.5
2016-11-20T04:32:41.951Z,3.6
2016-11-20T04:33:02.500Z,3.6
2016-11-20T04:33:23.064Z,3.6
2016-11-20T04:33:43.629Z,3.6
2016-11-20T04:34:04.162Z,3.8
2016-11-20T04:34:24.728Z,3.7
2016-11-20T04:34:45.275Z,3.8
2016-11-20T04:35:05.811Z,3.5
2016-11-20T04:35:26.370Z,3.6
2016-11-20T04:35:46.931Z,3.5
2016-11-20T04:36:07.484Z,3.6
2016-11-20T04:36:28.049Z,3.6
2016-11-20T04:36:48.620Z,3.5
2016-11-20T04:37:09.156Z,3.5
2016-11-20T04:37:29.712Z,3.6
2016-11-20T04:37:50.259Z,3.7
2016-11-20T04:38:10.811Z,3.6
2016-11-20T04:38:31.383Z,3.6
2016-11-20T04:38:51.927Z,3.6
2016-11-20T04:39:12.482Z,3.6
2016-11-20T04:39:33.044Z,3.7
2016-11-20T04:39:54.023Z,3.6
2016-11-20T04:40:14.580Z,3.7
2016-11-20T04:40:35.167Z,3.7
2016-11-20T04:40:55.750Z,3.7
2016-11-20T04:41:16.363Z,3.7
2016-11-20T04:41:36.902Z,3.7
2016-11-20T04:41:57.464Z,3.7
2016-11-20T04:42:18.027Z,3.7
2016-11-20T04:42:38.586Z,3.6
2016-11-20T04:42:59.163Z,3.7
2016-11-20T04:43:19.704Z,3.7
2016-11-20T04:43:40.238Z,3.7
2016-11-20T04:44:00.829Z,3.6